sensor_id;sensor_type;location;lat;lon;timestamp;P1;durP1;ratioP1;P2;durP2;ratioP2
72319;SDS011;60269;52.502;16.732;2023-11-18T00:02:46;23.45;;;7.60;;
72319;SDS011;60269;52.502;16.732;2023-11-18T00:06:18;19.53;;;7.20;;
72319;SDS011;60269;52.502;16.732;2023-11-18T00:09:50;18.60;;;6.90;;
72319;SDS011;60269;52.502;16.732;2023-11-18T00:13:22;19.17;;;6.82;;
72319;SDS011;60269;52.502;16.732;2023-11-18T00:16:54;21.23;;;7.20;;
72319;SDS011;60269;52.502;16.732;2023-11-18T00:20:26;20.02;;;7.30;;
72319;SDS011;60269;52.502;16.732;2023-11-18T00:23:59;20.40;;;7.85;;
72319;SDS011;60269;52.502;16.732;2023-11-18T00:27:31;20.20;;;7.65;;
72319;SDS011;60269;52.502;16.732;2023-11-18T00:31:03;22.47;;;7.50;;
72319;SDS011;60269;52.502;16.732;2023-11-18T00:34:37;22.40;;;7.68;;
72319;SDS011;60269;52.502;16.732;2023-11-18T00:38:08;22.70;;;8.15;;
72319;SDS011;60269;52.502;16.732;2023-11-18T00:41:43;27.93;;;9.27;;
72319;SDS011;60269;52.502;16.732;2023-11-18T00:45:16;30.58;;;10.52;;
72319;SDS011;60269;52.502;16.732;2023-11-18T00:48:49;28.35;;;10.82;;
72319;SDS011;60269;52.502;16.732;2023-11-18T00:52:21;27.90;;;10.10;;
72319;SDS011;60269;52.502;16.732;2023-11-18T00:55:53;31.00;;;11.65;;
72319;SDS011;60269;52.502;16.732;2023-11-18T00:59:25;30.58;;;10.40;;
72319;SDS011;60269;52.502;16.732;2023-11-18T01:02:58;35.22;;;12.30;;
72319;SDS011;60269;52.502;16.732;2023-11-18T01:06:31;27.23;;;9.53;;
72319;SDS011;60269;52.502;16.732;2023-11-18T01:10:04;28.95;;;11.05;;
72319;SDS011;60269;52.502;16.732;2023-11-18T01:13:38;30.48;;;10.85;;
72319;SDS011;60269;52.502;16.732;2023-11-18T01:17:10;26.27;;;9.27;;
72319;SDS011;60269;52.502;16.732;2023-11-18T01:20:42;29.52;;;10.88;;
72319;SDS011;60269;52.502;16.732;2023-11-18T01:24:14;30.75;;;9.70;;
72319;SDS011;60269;52.502;16.732;2023-11-18T01:27:48;32.00;;;9.77;;
72319;SDS011;60269;52.502;16.732;2023-11-18T01:31:21;26.13;;;9.30;;
72319;SDS011;60269;52.502;16.732;2023-11-18T01:34:53;30.88;;;8.93;;
72319;SDS011;60269;52.502;16.732;2023-11-18T01:38:25;25.98;;;8.75;;
72319;SDS011;60269;52.502;16.732;2023-11-18T01:41:57;34.43;;;8.97;;
72319;SDS011;60269;52.502;16.732;2023-11-18T01:45:34;24.48;;;9.40;;
72319;SDS011;60269;52.502;16.732;2023-11-18T01:49:08;27.80;;;8.57;;
72319;SDS011;60269;52.502;16.732;2023-11-18T01:52:40;25.07;;;8.57;;
72319;SDS011;60269;52.502;16.732;2023-11-18T01:56:17;30.20;;;9.38;;
72319;SDS011;60269;52.502;16.732;2023-11-18T01:59:49;28.67;;;9.32;;
72319;SDS011;60269;52.502;16.732;2023-11-18T02:03:21;25.27;;;8.70;;
72319;SDS011;60269;52.502;16.732;2023-11-18T02:06:53;30.00;;;9.30;;
72319;SDS011;60269;52.502;16.732;2023-11-18T02:10:26;26.02;;;8.80;;
72319;SDS011;60269;52.502;16.732;2023-11-18T02:14:00;30.48;;;9.00;;
72319;SDS011;60269;52.502;16.732;2023-11-18T02:17:37;29.33;;;9.60;;
72319;SDS011;60269;52.502;16.732;2023-11-18T02:21:11;26.02;;;9.07;;
72319;SDS011;60269;52.502;16.732;2023-11-18T02:24:43;29.02;;;9.50;;
72319;SDS011;60269;52.502;16.732;2023-11-18T02:28:16;27.17;;;8.63;;
72319;SDS011;60269;52.502;16.732;2023-11-18T02:31:49;25.42;;;8.32;;
72319;SDS011;60269;52.502;16.732;2023-11-18T02:35:28;25.15;;;8.10;;
72319;SDS011;60269;52.502;16.732;2023-11-18T02:39:08;23.73;;;8.60;;
72319;SDS011;60269;52.502;16.732;2023-11-18T02:42:49;29.55;;;7.90;;
72319;SDS011;60269;52.502;16.732;2023-11-18T02:46:24;27.83;;;9.23;;
72319;SDS011;60269;52.502;16.732;2023-11-18T02:50:00;29.80;;;9.05;;
72319;SDS011;60269;52.502;16.732;2023-11-18T02:53:42;31.53;;;9.77;;
72319;SDS011;60269;52.502;16.732;2023-11-18T02:57:17;23.00;;;7.68;;
72319;SDS011;60269;52.502;16.732;2023-11-18T03:00:49;26.05;;;9.25;;
72319;SDS011;60269;52.502;16.732;2023-11-18T03:04:21;26.93;;;8.73;;
72319;SDS011;60269;52.502;16.732;2023-11-18T03:07:55;27.05;;;8.93;;
72319;SDS011;60269;52.502;16.732;2023-11-18T03:11:29;25.55;;;7.32;;
72319;SDS011;60269;52.502;16.732;2023-11-18T03:15:02;26.30;;;9.00;;
72319;SDS011;60269;52.502;16.732;2023-11-18T03:18:34;23.80;;;7.43;;
72319;SDS011;60269;52.502;16.732;2023-11-18T03:22:08;26.17;;;7.60;;
72319;SDS011;60269;52.502;16.732;2023-11-18T03:25:40;25.80;;;8.20;;
72319;SDS011;60269;52.502;16.732;2023-11-18T03:29:12;28.90;;;8.83;;
72319;SDS011;60269;52.502;16.732;2023-11-18T03:32:45;25.30;;;8.60;;
72319;SDS011;60269;52.502;16.732;2023-11-18T03:36:19;24.33;;;8.05;;
72319;SDS011;60269;52.502;16.732;2023-11-18T03:39:52;23.70;;;8.20;;
72319;SDS011;60269;52.502;16.732;2023-11-18T03:43:24;20.25;;;6.72;;
72319;SDS011;60269;52.502;16.732;2023-11-18T03:46:57;26.67;;;7.65;;
72319;SDS011;60269;52.502;16.732;2023-11-18T03:50:28;22.40;;;6.90;;
72319;SDS011;60269;52.502;16.732;2023-11-18T03:54:00;21.98;;;6.95;;
72319;SDS011;60269;52.502;16.732;2023-11-18T03:57:33;22.10;;;8.40;;
72319;SDS011;60269;52.502;16.732;2023-11-18T04:01:05;20.70;;;7.55;;
72319;SDS011;60269;52.502;16.732;2023-11-18T04:04:38;19.73;;;6.53;;
72319;SDS011;60269;52.502;16.732;2023-11-18T04:08:10;14.05;;;4.35;;
72319;SDS011;60269;52.502;16.732;2023-11-18T04:11:43;18.48;;;6.18;;
72319;SDS011;60269;52.502;16.732;2023-11-18T04:15:17;21.50;;;6.83;;
72319;SDS011;60269;52.502;16.732;2023-11-18T04:18:49;19.00;;;6.28;;
72319;SDS011;60269;52.502;16.732;2023-11-18T04:22:21;23.10;;;7.63;;
72319;SDS011;60269;52.502;16.732;2023-11-18T04:25:54;19.17;;;6.87;;
72319;SDS011;60269;52.502;16.732;2023-11-18T04:29:27;23.10;;;7.70;;
72319;SDS011;60269;52.502;16.732;2023-11-18T04:32:58;21.17;;;7.82;;
72319;SDS011;60269;52.502;16.732;2023-11-18T04:36:31;20.23;;;6.70;;
72319;SDS011;60269;52.502;16.732;2023-11-18T04:40:06;22.83;;;7.73;;
72319;SDS011;60269;52.502;16.732;2023-11-18T04:43:41;24.08;;;7.82;;
72319;SDS011;60269;52.502;16.732;2023-11-18T04:47:17;23.48;;;7.65;;
72319;SDS011;60269;52.502;16.732;2023-11-18T04:50:50;22.37;;;7.43;;
72319;SDS011;60269;52.502;16.732;2023-11-18T04:54:23;19.00;;;7.22;;
72319;SDS011;60269;52.502;16.732;2023-11-18T04:57:55;18.05;;;6.75;;
72319;SDS011;60269;52.502;16.732;2023-11-18T05:01:28;18.63;;;7.13;;
72319;SDS011;60269;52.502;16.732;2023-11-18T05:05:00;18.23;;;6.72;;
72319;SDS011;60269;52.502;16.732;2023-11-18T05:08:32;20.25;;;7.65;;
72319;SDS011;60269;52.502;16.732;2023-11-18T05:12:05;19.83;;;7.78;;
72319;SDS011;60269;52.502;16.732;2023-11-18T05:15:38;20.53;;;7.50;;
72319;SDS011;60269;52.502;16.732;2023-11-18T05:19:10;20.58;;;7.35;;
72319;SDS011;60269;52.502;16.732;2023-11-18T05:22:43;17.35;;;6.35;;
72319;SDS011;60269;52.502;16.732;2023-11-18T05:26:15;19.40;;;6.57;;
72319;SDS011;60269;52.502;16.732;2023-11-18T05:29:47;19.70;;;6.28;;
72319;SDS011;60269;52.502;16.732;2023-11-18T05:33:25;19.85;;;6.65;;
72319;SDS011;60269;52.502;16.732;2023-11-18T05:36:59;19.73;;;7.90;;
72319;SDS011;60269;52.502;16.732;2023-11-18T05:40:32;20.45;;;7.35;;
72319;SDS011;60269;52.502;16.732;2023-11-18T05:44:07;17.50;;;6.07;;
72319;SDS011;60269;52.502;16.732;2023-11-18T05:47:41;21.00;;;6.53;;
72319;SDS011;60269;52.502;16.732;2023-11-18T05:51:13;22.93;;;7.90;;
72319;SDS011;60269;52.502;16.732;2023-11-18T05:54:46;22.27;;;7.35;;
72319;SDS011;60269;52.502;16.732;2023-11-18T05:58:19;21.25;;;7.40;;
72319;SDS011;60269;52.502;16.732;2023-11-18T06:01:51;20.73;;;6.77;;
72319;SDS011;60269;52.502;16.732;2023-11-18T06:05:23;17.33;;;5.75;;
72319;SDS011;60269;52.502;16.732;2023-11-18T06:08:58;16.90;;;5.70;;
72319;SDS011;60269;52.502;16.732;2023-11-18T06:12:36;18.00;;;5.97;;
72319;SDS011;60269;52.502;16.732;2023-11-18T06:16:12;15.70;;;5.53;;
72319;SDS011;60269;52.502;16.732;2023-11-18T06:19:48;11.18;;;4.15;;
72319;SDS011;60269;52.502;16.732;2023-11-18T06:23:21;13.45;;;4.88;;
72319;SDS011;60269;52.502;16.732;2023-11-18T06:26:54;14.23;;;4.47;;
72319;SDS011;60269;52.502;16.732;2023-11-18T06:30:26;16.38;;;5.15;;
72319;SDS011;60269;52.502;16.732;2023-11-18T06:33:59;11.68;;;4.45;;
72319;SDS011;60269;52.502;16.732;2023-11-18T06:37:32;14.43;;;4.53;;
72319;SDS011;60269;52.502;16.732;2023-11-18T06:41:04;14.43;;;4.38;;
72319;SDS011;60269;52.502;16.732;2023-11-18T06:44:40;12.73;;;4.57;;
72319;SDS011;60269;52.502;16.732;2023-11-18T06:48:12;13.67;;;5.20;;
72319;SDS011;60269;52.502;16.732;2023-11-18T06:51:46;17.42;;;5.88;;
72319;SDS011;60269;52.502;16.732;2023-11-18T06:55:19;16.77;;;6.30;;
72319;SDS011;60269;52.502;16.732;2023-11-18T06:58:52;18.75;;;6.85;;
72319;SDS011;60269;52.502;16.732;2023-11-18T07:02:24;17.67;;;6.70;;
72319;SDS011;60269;52.502;16.732;2023-11-18T07:05:56;18.67;;;6.28;;
72319;SDS011;60269;52.502;16.732;2023-11-18T07:09:27;17.33;;;6.47;;
72319;SDS011;60269;52.502;16.732;2023-11-18T07:12:59;18.07;;;5.87;;
72319;SDS011;60269;52.502;16.732;2023-11-18T07:16:31;17.15;;;6.28;;
72319;SDS011;60269;52.502;16.732;2023-11-18T07:20:03;18.45;;;6.90;;
72319;SDS011;60269;52.502;16.732;2023-11-18T07:23:37;18.17;;;7.27;;
72319;SDS011;60269;52.502;16.732;2023-11-18T07:27:09;22.92;;;9.00;;
72319;SDS011;60269;52.502;16.732;2023-11-18T07:30:43;25.08;;;9.00;;
72319;SDS011;60269;52.502;16.732;2023-11-18T07:34:20;20.45;;;8.35;;
72319;SDS011;60269;52.502;16.732;2023-11-18T07:37:53;29.43;;;10.63;;
72319;SDS011;60269;52.502;16.732;2023-11-18T07:41:25;26.85;;;9.50;;
72319;SDS011;60269;52.502;16.732;2023-11-18T07:45:06;26.33;;;9.30;;
72319;SDS011;60269;52.502;16.732;2023-11-18T07:48:49;28.80;;;11.07;;
72319;SDS011;60269;52.502;16.732;2023-11-18T07:52:23;29.80;;;10.38;;
72319;SDS011;60269;52.502;16.732;2023-11-18T07:55:55;23.65;;;9.60;;
72319;SDS011;60269;52.502;16.732;2023-11-18T07:59:27;25.73;;;9.80;;
72319;SDS011;60269;52.502;16.732;2023-11-18T08:03:00;21.63;;;9.05;;
72319;SDS011;60269;52.502;16.732;2023-11-18T08:06:33;24.00;;;8.60;;
72319;SDS011;60269;52.502;16.732;2023-11-18T08:10:05;25.02;;;9.93;;
72319;SDS011;60269;52.502;16.732;2023-11-18T08:13:38;20.33;;;8.00;;
72319;SDS011;60269;52.502;16.732;2023-11-18T08:17:09;23.75;;;9.73;;
72319;SDS011;60269;52.502;16.732;2023-11-18T08:20:42;21.75;;;8.50;;
72319;SDS011;60269;52.502;16.732;2023-11-18T08:24:15;22.20;;;8.73;;
72319;SDS011;60269;52.502;16.732;2023-11-18T08:27:47;19.45;;;8.02;;
72319;SDS011;60269;52.502;16.732;2023-11-18T08:31:19;23.05;;;9.32;;
72319;SDS011;60269;52.502;16.732;2023-11-18T08:34:53;19.87;;;8.93;;
72319;SDS011;60269;52.502;16.732;2023-11-18T08:38:24;19.08;;;7.85;;
72319;SDS011;60269;52.502;16.732;2023-11-18T08:41:57;19.27;;;7.45;;
72319;SDS011;60269;52.502;16.732;2023-11-18T08:45:28;18.98;;;7.65;;
72319;SDS011;60269;52.502;16.732;2023-11-18T08:49:02;19.50;;;7.97;;
72319;SDS011;60269;52.502;16.732;2023-11-18T08:52:45;22.45;;;8.80;;
72319;SDS011;60269;52.502;16.732;2023-11-18T08:56:24;19.02;;;8.25;;
72319;SDS011;60269;52.502;16.732;2023-11-18T09:00:06;22.77;;;8.63;;
72319;SDS011;60269;52.502;16.732;2023-11-18T09:03:49;21.90;;;8.43;;
72319;SDS011;60269;52.502;16.732;2023-11-18T09:07:24;19.40;;;7.97;;
72319;SDS011;60269;52.502;16.732;2023-11-18T09:10:58;22.47;;;8.30;;
72319;SDS011;60269;52.502;16.732;2023-11-18T09:14:31;20.48;;;7.60;;
72319;SDS011;60269;52.502;16.732;2023-11-18T09:18:05;17.50;;;7.13;;
72319;SDS011;60269;52.502;16.732;2023-11-18T09:21:42;18.67;;;7.43;;
72319;SDS011;60269;52.502;16.732;2023-11-18T09:25:15;23.50;;;9.10;;
72319;SDS011;60269;52.502;16.732;2023-11-18T09:28:47;19.35;;;8.30;;
72319;SDS011;60269;52.502;16.732;2023-11-18T09:32:23;16.17;;;6.88;;
72319;SDS011;60269;52.502;16.732;2023-11-18T09:36:07;18.90;;;7.57;;
72319;SDS011;60269;52.502;16.732;2023-11-18T09:39:40;19.52;;;7.47;;
72319;SDS011;60269;52.502;16.732;2023-11-18T09:43:17;17.70;;;7.00;;
72319;SDS011;60269;52.502;16.732;2023-11-18T09:46:50;20.20;;;8.23;;
72319;SDS011;60269;52.502;16.732;2023-11-18T09:50:36;20.63;;;8.60;;
72319;SDS011;60269;52.502;16.732;2023-11-18T09:54:12;18.60;;;7.55;;
72319;SDS011;60269;52.502;16.732;2023-11-18T09:57:51;19.55;;;8.23;;
72319;SDS011;60269;52.502;16.732;2023-11-18T10:01:32;18.83;;;8.67;;
72319;SDS011;60269;52.502;16.732;2023-11-18T10:05:09;19.08;;;8.55;;
72319;SDS011;60269;52.502;16.732;2023-11-18T10:08:45;19.25;;;8.95;;
72319;SDS011;60269;52.502;16.732;2023-11-18T10:12:18;19.33;;;7.80;;
72319;SDS011;60269;52.502;16.732;2023-11-18T10:15:55;20.70;;;8.15;;
72319;SDS011;60269;52.502;16.732;2023-11-18T10:19:48;19.48;;;8.40;;
72319;SDS011;60269;52.502;16.732;2023-11-18T10:23:28;16.17;;;7.43;;
72319;SDS011;60269;52.502;16.732;2023-11-18T10:27:00;23.25;;;8.68;;
72319;SDS011;60269;52.502;16.732;2023-11-18T10:30:32;21.95;;;8.05;;
72319;SDS011;60269;52.502;16.732;2023-11-18T10:34:14;21.92;;;9.65;;
72319;SDS011;60269;52.502;16.732;2023-11-18T10:37:50;19.10;;;7.90;;
72319;SDS011;60269;52.502;16.732;2023-11-18T10:41:22;19.80;;;7.80;;
72319;SDS011;60269;52.502;16.732;2023-11-18T10:44:58;21.25;;;8.20;;
72319;SDS011;60269;52.502;16.732;2023-11-18T10:48:30;20.33;;;8.80;;
72319;SDS011;60269;52.502;16.732;2023-11-18T10:52:03;15.43;;;7.15;;
72319;SDS011;60269;52.502;16.732;2023-11-18T10:55:39;16.65;;;6.95;;
72319;SDS011;60269;52.502;16.732;2023-11-18T10:59:12;16.57;;;6.93;;
72319;SDS011;60269;52.502;16.732;2023-11-18T11:02:48;17.77;;;7.05;;
72319;SDS011;60269;52.502;16.732;2023-11-18T11:06:29;16.35;;;6.82;;
72319;SDS011;60269;52.502;16.732;2023-11-18T11:10:04;17.17;;;6.88;;
72319;SDS011;60269;52.502;16.732;2023-11-18T11:13:36;16.40;;;6.93;;
72319;SDS011;60269;52.502;16.732;2023-11-18T11:17:13;16.17;;;7.05;;
72319;SDS011;60269;52.502;16.732;2023-11-18T11:20:58;17.73;;;7.40;;
72319;SDS011;60269;52.502;16.732;2023-11-18T11:24:40;17.37;;;6.80;;
72319;SDS011;60269;52.502;16.732;2023-11-18T11:28:37;18.20;;;8.13;;
72319;SDS011;60269;52.502;16.732;2023-11-18T11:32:24;18.02;;;7.20;;
72319;SDS011;60269;52.502;16.732;2023-11-18T11:36:02;17.97;;;8.10;;
72319;SDS011;60269;52.502;16.732;2023-11-18T11:39:37;21.80;;;8.45;;
72319;SDS011;60269;52.502;16.732;2023-11-18T11:43:09;25.90;;;8.60;;
72319;SDS011;60269;52.502;16.732;2023-11-18T11:46:43;17.02;;;7.90;;
72319;SDS011;60269;52.502;16.732;2023-11-18T11:50:17;20.27;;;8.47;;
72319;SDS011;60269;52.502;16.732;2023-11-18T11:54:06;19.30;;;8.23;;
72319;SDS011;60269;52.502;16.732;2023-11-18T11:57:50;19.05;;;8.05;;
72319;SDS011;60269;52.502;16.732;2023-11-18T12:01:26;17.63;;;7.80;;
72319;SDS011;60269;52.502;16.732;2023-11-18T12:05:05;22.65;;;9.68;;
72319;SDS011;60269;52.502;16.732;2023-11-18T12:08:39;17.17;;;7.57;;
72319;SDS011;60269;52.502;16.732;2023-11-18T12:12:20;18.83;;;7.30;;
72319;SDS011;60269;52.502;16.732;2023-11-18T12:15:53;16.13;;;7.18;;
72319;SDS011;60269;52.502;16.732;2023-11-18T12:23:05;18.88;;;6.80;;
72319;SDS011;60269;52.502;16.732;2023-11-18T12:26:47;16.20;;;6.40;;
72319;SDS011;60269;52.502;16.732;2023-11-18T12:34:00;16.13;;;6.90;;
72319;SDS011;60269;52.502;16.732;2023-11-18T12:49:25;18.57;;;8.37;;
72319;SDS011;60269;52.502;16.732;2023-11-18T12:52:57;19.95;;;8.50;;
72319;SDS011;60269;52.502;16.732;2023-11-18T12:56:29;18.98;;;8.18;;
72319;SDS011;60269;52.502;16.732;2023-11-18T13:00:02;19.13;;;7.25;;
72319;SDS011;60269;52.502;16.732;2023-11-18T13:03:35;19.17;;;7.50;;
72319;SDS011;60269;52.502;16.732;2023-11-18T13:07:08;25.52;;;8.35;;
72319;SDS011;60269;52.502;16.732;2023-11-18T13:10:43;18.75;;;7.32;;
72319;SDS011;60269;52.502;16.732;2023-11-18T13:14:16;18.97;;;7.90;;
72319;SDS011;60269;52.502;16.732;2023-11-18T13:18:02;19.23;;;8.25;;
72319;SDS011;60269;52.502;16.732;2023-11-18T13:21:39;16.70;;;7.45;;
72319;SDS011;60269;52.502;16.732;2023-11-18T13:25:11;18.07;;;6.97;;
72319;SDS011;60269;52.502;16.732;2023-11-18T13:28:46;17.48;;;6.72;;
72319;SDS011;60269;52.502;16.732;2023-11-18T13:32:19;16.20;;;7.32;;
72319;SDS011;60269;52.502;16.732;2023-11-18T13:35:57;18.35;;;7.63;;
72319;SDS011;60269;52.502;16.732;2023-11-18T13:39:30;18.33;;;8.20;;
72319;SDS011;60269;52.502;16.732;2023-11-18T13:43:03;16.95;;;7.63;;
72319;SDS011;60269;52.502;16.732;2023-11-18T13:46:41;16.98;;;7.70;;
72319;SDS011;60269;52.502;16.732;2023-11-18T13:50:15;15.07;;;7.50;;
72319;SDS011;60269;52.502;16.732;2023-11-18T13:53:48;17.70;;;7.50;;
72319;SDS011;60269;52.502;16.732;2023-11-18T13:57:21;15.75;;;7.35;;
72319;SDS011;60269;52.502;16.732;2023-11-18T14:00:56;18.43;;;7.83;;
72319;SDS011;60269;52.502;16.732;2023-11-18T14:04:30;16.67;;;7.70;;
72319;SDS011;60269;52.502;16.732;2023-11-18T14:08:04;13.30;;;6.95;;
72319;SDS011;60269;52.502;16.732;2023-11-18T14:11:42;16.58;;;6.55;;
72319;SDS011;60269;52.502;16.732;2023-11-18T14:15:14;18.37;;;7.60;;
72319;SDS011;60269;52.502;16.732;2023-11-18T14:18:47;17.80;;;7.40;;
72319;SDS011;60269;52.502;16.732;2023-11-18T14:22:19;16.98;;;6.90;;
72319;SDS011;60269;52.502;16.732;2023-11-18T14:25:51;14.70;;;6.17;;
72319;SDS011;60269;52.502;16.732;2023-11-18T14:29:23;20.95;;;8.63;;
72319;SDS011;60269;52.502;16.732;2023-11-18T14:33:00;20.52;;;7.43;;
72319;SDS011;60269;52.502;16.732;2023-11-18T14:36:32;17.40;;;7.65;;
72319;SDS011;60269;52.502;16.732;2023-11-18T14:40:04;17.50;;;7.43;;
72319;SDS011;60269;52.502;16.732;2023-11-18T14:43:40;18.60;;;7.13;;
72319;SDS011;60269;52.502;16.732;2023-11-18T14:47:13;19.15;;;6.70;;
72319;SDS011;60269;52.502;16.732;2023-11-18T14:50:45;19.47;;;7.47;;
72319;SDS011;60269;52.502;16.732;2023-11-18T14:54:17;16.23;;;6.90;;
72319;SDS011;60269;52.502;16.732;2023-11-18T14:57:49;14.30;;;6.38;;
72319;SDS011;60269;52.502;16.732;2023-11-18T15:01:22;20.00;;;6.83;;
72319;SDS011;60269;52.502;16.732;2023-11-18T15:04:53;19.33;;;7.63;;
72319;SDS011;60269;52.502;16.732;2023-11-18T15:08:26;21.23;;;7.30;;
72319;SDS011;60269;52.502;16.732;2023-11-18T15:11:57;22.83;;;8.60;;
72319;SDS011;60269;52.502;16.732;2023-11-18T15:15:30;21.03;;;8.67;;
72319;SDS011;60269;52.502;16.732;2023-11-18T15:19:04;23.02;;;8.77;;
72319;SDS011;60269;52.502;16.732;2023-11-18T15:22:36;22.63;;;8.65;;
72319;SDS011;60269;52.502;16.732;2023-11-18T15:26:08;26.53;;;9.47;;
72319;SDS011;60269;52.502;16.732;2023-11-18T15:29:40;27.65;;;9.25;;
72319;SDS011;60269;52.502;16.732;2023-11-18T15:33:20;28.00;;;10.55;;
72319;SDS011;60269;52.502;16.732;2023-11-18T15:36:52;32.10;;;12.20;;
72319;SDS011;60269;52.502;16.732;2023-11-18T15:40:24;39.22;;;13.20;;
72319;SDS011;60269;52.502;16.732;2023-11-18T15:43:57;37.50;;;14.32;;
72319;SDS011;60269;52.502;16.732;2023-11-18T15:47:29;35.83;;;13.23;;
72319;SDS011;60269;52.502;16.732;2023-11-18T15:51:01;48.73;;;15.93;;
72319;SDS011;60269;52.502;16.732;2023-11-18T15:54:34;39.90;;;15.63;;
72319;SDS011;60269;52.502;16.732;2023-11-18T15:58:05;38.63;;;13.73;;
72319;SDS011;60269;52.502;16.732;2023-11-18T16:01:37;33.53;;;13.07;;
72319;SDS011;60269;52.502;16.732;2023-11-18T16:05:09;36.75;;;13.57;;
72319;SDS011;60269;52.502;16.732;2023-11-18T16:08:42;36.65;;;13.13;;
72319;SDS011;60269;52.502;16.732;2023-11-18T16:12:18;59.67;;;20.50;;
72319;SDS011;60269;52.502;16.732;2023-11-18T16:15:49;52.55;;;18.17;;
72319;SDS011;60269;52.502;16.732;2023-11-18T16:19:22;39.42;;;14.43;;
72319;SDS011;60269;52.502;16.732;2023-11-18T16:22:54;53.63;;;18.63;;
72319;SDS011;60269;52.502;16.732;2023-11-18T16:26:27;40.63;;;14.00;;
72319;SDS011;60269;52.502;16.732;2023-11-18T16:29:58;36.15;;;14.55;;
72319;SDS011;60269;52.502;16.732;2023-11-18T16:33:31;37.47;;;13.55;;
72319;SDS011;60269;52.502;16.732;2023-11-18T16:37:04;35.83;;;13.90;;
72319;SDS011;60269;52.502;16.732;2023-11-18T16:40:36;39.67;;;14.73;;
72319;SDS011;60269;52.502;16.732;2023-11-18T16:44:08;37.70;;;13.68;;
72319;SDS011;60269;52.502;16.732;2023-11-18T16:47:41;37.13;;;13.87;;
72319;SDS011;60269;52.502;16.732;2023-11-18T16:51:14;47.13;;;15.52;;
72319;SDS011;60269;52.502;16.732;2023-11-18T16:54:46;46.92;;;15.85;;
72319;SDS011;60269;52.502;16.732;2023-11-18T16:58:18;40.40;;;14.30;;
72319;SDS011;60269;52.502;16.732;2023-11-18T17:01:51;44.03;;;16.53;;
72319;SDS011;60269;52.502;16.732;2023-11-18T17:05:24;44.95;;;17.52;;
72319;SDS011;60269;52.502;16.732;2023-11-18T17:08:58;47.25;;;18.25;;
72319;SDS011;60269;52.502;16.732;2023-11-18T17:12:30;49.00;;;18.00;;
72319;SDS011;60269;52.502;16.732;2023-11-18T17:16:03;52.30;;;21.15;;
72319;SDS011;60269;52.502;16.732;2023-11-18T17:19:35;52.65;;;21.08;;
72319;SDS011;60269;52.502;16.732;2023-11-18T17:23:07;44.97;;;18.50;;
72319;SDS011;60269;52.502;16.732;2023-11-18T17:26:39;45.13;;;16.80;;
72319;SDS011;60269;52.502;16.732;2023-11-18T17:30:13;42.90;;;18.20;;
72319;SDS011;60269;52.502;16.732;2023-11-18T17:33:48;44.38;;;17.70;;
72319;SDS011;60269;52.502;16.732;2023-11-18T17:37:20;50.27;;;18.33;;
72319;SDS011;60269;52.502;16.732;2023-11-18T17:40:52;45.70;;;19.52;;
72319;SDS011;60269;52.502;16.732;2023-11-18T17:44:24;65.88;;;21.67;;
72319;SDS011;60269;52.502;16.732;2023-11-18T17:47:56;50.63;;;17.93;;
72319;SDS011;60269;52.502;16.732;2023-11-18T17:51:28;40.00;;;16.70;;
72319;SDS011;60269;52.502;16.732;2023-11-18T17:55:02;42.40;;;15.93;;
72319;SDS011;60269;52.502;16.732;2023-11-18T17:58:35;43.83;;;17.20;;
72319;SDS011;60269;52.502;16.732;2023-11-18T18:02:09;43.72;;;16.13;;
72319;SDS011;60269;52.502;16.732;2023-11-18T18:05:43;49.88;;;20.00;;
72319;SDS011;60269;52.502;16.732;2023-11-18T18:09:15;52.67;;;19.58;;
72319;SDS011;60269;52.502;16.732;2023-11-18T18:12:50;51.43;;;18.20;;
72319;SDS011;60269;52.502;16.732;2023-11-18T18:16:22;53.20;;;20.25;;
72319;SDS011;60269;52.502;16.732;2023-11-18T18:19:55;63.17;;;21.73;;
72319;SDS011;60269;52.502;16.732;2023-11-18T18:23:27;53.57;;;19.97;;
72319;SDS011;60269;52.502;16.732;2023-11-18T18:27:01;55.20;;;20.30;;
72319;SDS011;60269;52.502;16.732;2023-11-18T18:30:33;51.58;;;18.52;;
72319;SDS011;60269;52.502;16.732;2023-11-18T18:34:05;56.20;;;21.03;;
72319;SDS011;60269;52.502;16.732;2023-11-18T18:37:36;55.72;;;19.35;;
72319;SDS011;60269;52.502;16.732;2023-11-18T18:41:08;46.90;;;19.17;;
72319;SDS011;60269;52.502;16.732;2023-11-18T18:44:41;57.28;;;20.17;;
72319;SDS011;60269;52.502;16.732;2023-11-18T18:48:13;52.90;;;19.30;;
72319;SDS011;60269;52.502;16.732;2023-11-18T18:51:45;52.83;;;20.00;;
72319;SDS011;60269;52.502;16.732;2023-11-18T18:55:17;44.40;;;15.75;;
72319;SDS011;60269;52.502;16.732;2023-11-18T18:58:50;34.07;;;13.77;;
72319;SDS011;60269;52.502;16.732;2023-11-18T19:02:22;44.13;;;15.95;;
72319;SDS011;60269;52.502;16.732;2023-11-18T19:05:54;50.67;;;17.48;;
72319;SDS011;60269;52.502;16.732;2023-11-18T19:09:26;39.37;;;15.67;;
72319;SDS011;60269;52.502;16.732;2023-11-18T19:12:58;49.83;;;18.02;;
72319;SDS011;60269;52.502;16.732;2023-11-18T19:16:35;44.08;;;17.33;;
72319;SDS011;60269;52.502;16.732;2023-11-18T19:20:07;58.80;;;21.42;;
72319;SDS011;60269;52.502;16.732;2023-11-18T19:23:45;69.00;;;24.23;;
72319;SDS011;60269;52.502;16.732;2023-11-18T19:27:17;65.07;;;25.30;;
72319;SDS011;60269;52.502;16.732;2023-11-18T19:30:49;66.00;;;24.52;;
72319;SDS011;60269;52.502;16.732;2023-11-18T19:34:21;61.43;;;23.03;;
72319;SDS011;60269;52.502;16.732;2023-11-18T19:37:53;68.47;;;25.33;;
72319;SDS011;60269;52.502;16.732;2023-11-18T19:41:26;72.35;;;25.85;;
72319;SDS011;60269;52.502;16.732;2023-11-18T19:44:58;67.23;;;25.90;;
72319;SDS011;60269;52.502;16.732;2023-11-18T19:48:30;62.60;;;23.80;;
72319;SDS011;60269;52.502;16.732;2023-11-18T19:52:03;60.45;;;23.67;;
72319;SDS011;60269;52.502;16.732;2023-11-18T19:55:35;64.47;;;23.15;;
72319;SDS011;60269;52.502;16.732;2023-11-18T19:59:08;65.53;;;23.30;;
72319;SDS011;60269;52.502;16.732;2023-11-18T20:02:39;69.35;;;23.88;;
72319;SDS011;60269;52.502;16.732;2023-11-18T20:06:13;54.10;;;19.75;;
72319;SDS011;60269;52.502;16.732;2023-11-18T20:09:45;58.10;;;20.57;;
72319;SDS011;60269;52.502;16.732;2023-11-18T20:13:17;56.95;;;18.70;;
72319;SDS011;60269;52.502;16.732;2023-11-18T20:16:49;49.95;;;18.17;;
72319;SDS011;60269;52.502;16.732;2023-11-18T20:20:21;59.13;;;20.50;;
72319;SDS011;60269;52.502;16.732;2023-11-18T20:23:54;59.20;;;21.10;;
72319;SDS011;60269;52.502;16.732;2023-11-18T20:27:26;54.72;;;21.63;;
72319;SDS011;60269;52.502;16.732;2023-11-18T20:30:57;57.85;;;21.80;;
72319;SDS011;60269;52.502;16.732;2023-11-18T20:34:29;63.83;;;21.07;;
72319;SDS011;60269;52.502;16.732;2023-11-18T20:38:01;66.60;;;23.98;;
72319;SDS011;60269;52.502;16.732;2023-11-18T20:41:34;62.28;;;22.27;;
72319;SDS011;60269;52.502;16.732;2023-11-18T20:45:07;52.23;;;20.70;;
72319;SDS011;60269;52.502;16.732;2023-11-18T20:48:40;69.10;;;22.98;;
72319;SDS011;60269;52.502;16.732;2023-11-18T20:52:13;61.63;;;22.48;;
72319;SDS011;60269;52.502;16.732;2023-11-18T20:55:45;57.13;;;21.23;;
72319;SDS011;60269;52.502;16.732;2023-11-18T20:59:18;65.57;;;23.15;;
72319;SDS011;60269;52.502;16.732;2023-11-18T21:02:51;55.42;;;20.90;;
72319;SDS011;60269;52.502;16.732;2023-11-18T21:06:23;62.25;;;22.15;;